Time;durP1;ratioP1;P1;durP2;ratioP2;P2;SDS_P1;SDS_P2;PMS_P1;PMS_P2;Temp;Humidity;BMP_temperature;BMP_pressure;BME280_temperature;BME280_humidity;BME280_pressure;Samples;Min_cycle;Max_cycle;Signal;HPM_P1;HPM_P2
2023/10/26 00:01:13;;;;;;;25.53;5.37;;;;;;;;;;5025013;28;20307;-71
2023/10/26 00:03:38;;;;;;;25.73;5.60;;;;;;;;;;5025484;28;20061;-72
2023/10/26 00:06:03;;;;;;;25.03;4.80;;;;;;;;;;5007815;28;20048;-71
2023/10/26 00:08:29;;;;;;;26.58;5.85;;;;;;;;;;5007129;28;20041;-71
2023/10/26 00:10:54;;;;;;;22.83;4.97;;;;;;;;;;5001231;28;20089;-71
2023/10/26 00:13:19;;;;;;;23.52;4.95;;;;;;;;;;5025087;28;20379;-71
2023/10/26 00:15:44;;;;;;;25.67;5.00;;;;;;;;;;5025433;28;20518;-71
2023/10/26 00:18:09;;;;;;;22.97;4.83;;;;;;;;;;5006559;28;20526;-72
2023/10/26 00:20:35;;;;;;;18.17;4.10;;;;;;;;;;5019500;28;20492;-71
2023/10/26 00:23:01;;;;;;;22.47;5.13;;;;;;;;;;5007693;28;20489;-71
2023/10/26 00:25:26;;;;;;;21.40;4.53;;;;;;;;;;5024541;28;20295;-72
2023/10/26 00:27:52;;;;;;;27.33;5.43;;;;;;;;;;5017977;28;20046;-72
2023/10/26 00:30:17;;;;;;;20.15;4.57;;;;;;;;;;5016821;28;20112;-71
2023/10/26 00:32:42;;;;;;;21.20;5.00;;;;;;;;;;4997966;28;20690;-71
2023/10/26 00:35:08;;;;;;;18.43;4.07;;;;;;;;;;5025567;28;20037;-71
2023/10/26 00:37:33;;;;;;;23.45;4.68;;;;;;;;;;5017381;28;20352;-72
2023/10/26 00:39:58;;;;;;;19.40;4.57;;;;;;;;;;5043410;28;20033;-71
2023/10/26 00:42:24;;;;;;;22.90;5.00;;;;;;;;;;5008808;28;20030;-72
2023/10/26 00:44:49;;;;;;;20.75;4.90;;;;;;;;;;5012630;28;20026;-71
2023/10/26 00:47:15;;;;;;;20.25;5.00;;;;;;;;;;4992465;28;20037;-71
2023/10/26 00:49:40;;;;;;;21.75;5.20;;;;;;;;;;5002455;28;20048;-69
2023/10/26 00:52:06;;;;;;;19.15;5.38;;;;;;;;;;5002484;28;20042;-73
2023/10/26 00:54:31;;;;;;;25.88;4.72;;;;;;;;;;5005141;28;20026;-70
2023/10/26 00:56:57;;;;;;;20.08;4.13;;;;;;;;;;5001316;28;20030;-69
2023/10/26 00:59:22;;;;;;;21.00;5.00;;;;;;;;;;5004951;28;20145;-71
2023/10/26 01:01:47;;;;;;;22.90;4.82;;;;;;;;;;4991400;28;20874;-70
2023/10/26 01:04:16;;;;;;;22.35;5.13;;;;;;;;;;4968831;28;20037;-69
2023/10/26 01:06:41;;;;;;;20.02;4.78;;;;;;;;;;4999311;28;20030;-70
2023/10/26 01:09:08;;;;;;;21.63;4.88;;;;;;;;;;4993529;28;20053;-70
2023/10/26 01:11:33;;;;;;;23.65;5.00;;;;;;;;;;4995180;28;20044;-71
2023/10/26 01:13:58;;;;;;;18.70;4.17;;;;;;;;;;5003318;28;20042;-71
2023/10/26 01:16:24;;;;;;;24.15;4.53;;;;;;;;;;4986116;28;20293;-72
2023/10/26 01:18:49;;;;;;;20.05;4.57;;;;;;;;;;4994920;28;20647;-72
2023/10/26 01:21:14;;;;;;;16.67;4.23;;;;;;;;;;4997171;28;20061;-70
2023/10/26 01:23:39;;;;;;;21.93;4.83;;;;;;;;;;4992735;28;20301;-71
2023/10/26 01:26:06;;;;;;;16.70;4.22;;;;;;;;;;5004619;28;20546;-70
2023/10/26 01:28:31;;;;;;;19.70;4.00;;;;;;;;;;5002929;28;20042;-70
2023/10/26 01:30:57;;;;;;;15.67;4.03;;;;;;;;;;5000534;28;20899;-70
2023/10/26 01:33:23;;;;;;;17.58;4.18;;;;;;;;;;4985560;28;20356;-71
2023/10/26 01:35:48;;;;;;;20.67;4.47;;;;;;;;;;4984541;28;20509;-71
2023/10/26 01:38:13;;;;;;;16.13;3.50;;;;;;;;;;4995089;28;20566;-71
2023/10/26 01:40:38;;;;;;;15.90;3.92;;;;;;;;;;5006673;28;20084;-73
2023/10/26 01:43:04;;;;;;;17.77;4.00;;;;;;;;;;4989426;28;20034;-72
2023/10/26 01:45:29;;;;;;;14.25;3.85;;;;;;;;;;4987579;28;20061;-72
2023/10/26 01:47:54;;;;;;;16.37;4.07;;;;;;;;;;4991993;28;20535;-72
2023/10/26 01:50:20;;;;;;;19.23;3.67;;;;;;;;;;4991016;28;20722;-72
2023/10/26 01:52:45;;;;;;;15.95;3.65;;;;;;;;;;4989452;28;20042;-72
2023/10/26 01:55:10;;;;;;;17.97;4.73;;;;;;;;;;4987555;28;20041;-72
2023/10/26 01:57:35;;;;;;;16.30;3.90;;;;;;;;;;4994199;28;20034;-72
2023/10/26 02:00:01;;;;;;;19.27;4.25;;;;;;;;;;5008546;28;20340;-72
2023/10/26 02:02:26;;;;;;;13.35;3.20;;;;;;;;;;5004748;28;20096;-72
2023/10/26 02:04:51;;;;;;;17.67;3.63;;;;;;;;;;4997609;28;20686;-72
2023/10/26 02:07:16;;;;;;;21.60;4.22;;;;;;;;;;4990900;28;20344;-72
2023/10/26 02:09:42;;;;;;;16.47;3.97;;;;;;;;;;5003229;28;20428;-72
2023/10/26 02:12:07;;;;;;;13.10;3.87;;;;;;;;;;4988454;28;20363;-72
2023/10/26 02:14:32;;;;;;;14.02;4.22;;;;;;;;;;5012979;28;20412;-71
2023/10/26 02:16:57;;;;;;;16.27;3.87;;;;;;;;;;5007949;28;20061;-71
2023/10/26 02:19:23;;;;;;;16.98;3.75;;;;;;;;;;5000521;28;20875;-71
2023/10/26 02:21:48;;;;;;;18.57;3.37;;;;;;;;;;4988878;28;20045;-71
2023/10/26 02:24:13;;;;;;;15.90;3.50;;;;;;;;;;4995101;28;20291;-71
2023/10/26 02:26:38;;;;;;;18.67;3.80;;;;;;;;;;5020681;28;20371;-70
2023/10/26 02:29:04;;;;;;;16.87;3.60;;;;;;;;;;4996568;28;20110;-70
2023/10/26 02:31:29;;;;;;;15.20;3.00;;;;;;;;;;4992389;28;20680;-70
2023/10/26 02:33:54;;;;;;;13.63;3.55;;;;;;;;;;5008784;28;20033;-70
2023/10/26 02:36:19;;;;;;;15.17;3.33;;;;;;;;;;5009097;28;20145;-71
2023/10/26 02:38:44;;;;;;;12.20;3.50;;;;;;;;;;5009035;28;20113;-71
2023/10/26 02:41:10;;;;;;;12.10;3.20;;;;;;;;;;5007684;28;20387;-70
2023/10/26 02:43:35;;;;;;;12.35;3.40;;;;;;;;;;5010433;28;20280;-70
2023/10/26 02:46:06;;;;;;;12.05;3.10;;;;;;;;;;5010531;28;20398;-71
2023/10/26 02:48:32;;;;;;;15.45;3.10;;;;;;;;;;5009868;28;20030;-71
2023/10/26 02:50:57;;;;;;;11.70;3.10;;;;;;;;;;4996523;28;20420;-70
2023/10/26 02:53:23;;;;;;;12.03;2.97;;;;;;;;;;4989421;28;20689;-70
2023/10/26 02:55:48;;;;;;;12.83;2.73;;;;;;;;;;4990344;28;20476;-71
2023/10/26 02:58:13;;;;;;;12.38;2.95;;;;;;;;;;5020896;28;20290;-70
2023/10/26 03:00:38;;;;;;;13.20;3.20;;;;;;;;;;5026952;28;20053;-71
2023/10/26 03:03:04;;;;;;;9.63;2.87;;;;;;;;;;5010716;28;20548;-71
2023/10/26 03:05:30;;;;;;;15.20;3.20;;;;;;;;;;5025776;28;20591;-71
2023/10/26 03:07:55;;;;;;;13.13;2.90;;;;;;;;;;4999168;28;20033;-71
2023/10/26 03:10:20;;;;;;;10.80;3.22;;;;;;;;;;4989802;28;20062;-71
2023/10/26 03:12:47;;;;;;;11.07;2.80;;;;;;;;;;5019000;28;20038;-71
2023/10/26 03:15:12;;;;;;;14.52;3.10;;;;;;;;;;5026540;28;20403;-71
2023/10/26 03:17:37;;;;;;;12.73;2.90;;;;;;;;;;5017110;28;20042;-71
2023/10/26 03:20:05;;;;;;;11.00;3.30;;;;;;;;;;4989067;28;20103;-71
2023/10/26 03:22:30;;;;;;;11.13;2.60;;;;;;;;;;5005258;28;20288;-71
2023/10/26 03:24:55;;;;;;;14.70;2.93;;;;;;;;;;4988351;28;20389;-70
2023/10/26 03:27:20;;;;;;;14.55;3.80;;;;;;;;;;4994029;28;20392;-69
2023/10/26 03:29:46;;;;;;;15.68;3.05;;;;;;;;;;4989839;28;20120;-70
2023/10/26 03:32:11;;;;;;;17.55;3.00;;;;;;;;;;5026351;28;20105;-71
2023/10/26 03:34:36;;;;;;;12.75;3.10;;;;;;;;;;4992037;28;20094;-71
2023/10/26 03:37:01;;;;;;;16.23;2.87;;;;;;;;;;5005570;28;20041;-71
2023/10/26 03:39:28;;;;;;;12.73;2.95;;;;;;;;;;4995117;28;20353;-73
2023/10/26 03:41:54;;;;;;;16.70;3.13;;;;;;;;;;5005372;28;20051;-72
2023/10/26 03:44:19;;;;;;;10.48;2.90;;;;;;;;;;4996277;28;20029;-71
2023/10/26 03:46:46;;;;;;;13.40;2.90;;;;;;;;;;5021391;28;20477;-71
2023/10/26 03:49:11;;;;;;;14.15;2.90;;;;;;;;;;4988827;28;20045;-72
2023/10/26 03:51:37;;;;;;;8.67;2.70;;;;;;;;;;5011523;28;20034;-72
2023/10/26 03:54:03;;;;;;;13.25;2.97;;;;;;;;;;5012387;28;20395;-72
2023/10/26 03:56:28;;;;;;;12.75;2.63;;;;;;;;;;5025684;28;20048;-72
2023/10/26 03:58:53;;;;;;;13.93;2.50;;;;;;;;;;5025531;28;20041;-72
2023/10/26 04:01:18;;;;;;;15.53;3.37;;;;;;;;;;5000926;28;20297;-73
2023/10/26 04:03:44;;;;;;;13.40;3.20;;;;;;;;;;5021459;28;20300;-73
2023/10/26 04:06:09;;;;;;;12.80;3.00;;;;;;;;;;5007273;28;20367;-73
2023/10/26 04:08:36;;;;;;;13.33;2.73;;;;;;;;;;5024613;28;20033;-72
2023/10/26 04:11:01;;;;;;;8.88;2.70;;;;;;;;;;5018150;28;20350;-72
2023/10/26 04:13:30;;;;;;;16.50;2.83;;;;;;;;;;5018566;28;20467;-73
2023/10/26 04:16:01;;;;;;;11.95;2.97;;;;;;;;;;5024063;28;20841;-72
2023/10/26 04:18:27;;;;;;;10.30;2.67;;;;;;;;;;5000366;28;20040;-72
2023/10/26 04:20:52;;;;;;;9.40;2.77;;;;;;;;;;5007157;28;20041;-72
2023/10/26 04:23:17;;;;;;;13.30;3.08;;;;;;;;;;4997096;28;20044;-70
2023/10/26 04:25:42;;;;;;;13.17;2.70;;;;;;;;;;4990248;28;20536;-70
2023/10/26 04:28:08;;;;;;;8.83;2.13;;;;;;;;;;5025007;28;20527;-70
2023/10/26 04:30:33;;;;;;;10.83;2.53;;;;;;;;;;5024739;28;20306;-70
2023/10/26 04:32:58;;;;;;;9.60;2.50;;;;;;;;;;5000383;28;20056;-71
2023/10/26 04:35:23;;;;;;;10.68;2.78;;;;;;;;;;4987595;28;20320;-71
2023/10/26 04:37:49;;;;;;;9.23;2.45;;;;;;;;;;5023439;28;20399;-71
2023/10/26 04:40:15;;;;;;;8.57;2.20;;;;;;;;;;5024628;28;20510;-71
2023/10/26 04:42:40;;;;;;;8.82;1.98;;;;;;;;;;5007331;28;20037;-70
2023/10/26 04:45:06;;;;;;;7.87;2.53;;;;;;;;;;5023592;28;20033;-71
2023/10/26 04:47:31;;;;;;;10.77;2.60;;;;;;;;;;5023035;28;20033;-71
2023/10/26 04:49:56;;;;;;;6.60;2.40;;;;;;;;;;5021213;28;20045;-71
2023/10/26 04:52:21;;;;;;;7.83;1.80;;;;;;;;;;5021329;28;20074;-71
2023/10/26 04:54:47;;;;;;;9.05;2.38;;;;;;;;;;5022126;28;20156;-71
2023/10/26 04:57:12;;;;;;;9.52;2.08;;;;;;;;;;4989022;28;20040;-71
2023/10/26 04:59:37;;;;;;;8.57;1.90;;;;;;;;;;5020705;28;20076;-72
2023/10/26 05:02:03;;;;;;;4.90;1.70;;;;;;;;;;4995929;28;20292;-72
2023/10/26 05:04:28;;;;;;;9.07;2.35;;;;;;;;;;4985178;28;20295;-73
2023/10/26 05:06:53;;;;;;;6.10;1.83;;;;;;;;;;5024005;28;20125;-73
2023/10/26 05:09:18;;;;;;;7.80;2.58;;;;;;;;;;5001214;28;20037;-71
2023/10/26 05:11:44;;;;;;;5.60;2.20;;;;;;;;;;5020504;28;20037;-76
2023/10/26 05:14:09;;;;;;;9.27;2.28;;;;;;;;;;5010136;28;20100;-72
2023/10/26 05:16:34;;;;;;;8.10;2.15;;;;;;;;;;4992898;28;20558;-72
2023/10/26 05:19:00;;;;;;;5.93;2.13;;;;;;;;;;5011002;28;20030;-73
2023/10/26 05:21:25;;;;;;;7.65;2.28;;;;;;;;;;5006911;28;20579;-72
2023/10/26 05:23:50;;;;;;;9.83;2.27;;;;;;;;;;5012047;28;20034;-71
2023/10/26 05:26:15;;;;;;;6.97;2.53;;;;;;;;;;5011354;28;20383;-72
2023/10/26 05:28:41;;;;;;;5.55;1.52;;;;;;;;;;5012548;28;20292;-72
2023/10/26 05:31:06;;;;;;;9.57;2.57;;;;;;;;;;5000866;28;20045;-72
2023/10/26 05:33:31;;;;;;;9.17;2.40;;;;;;;;;;5006260;28;20046;-72
2023/10/26 05:35:56;;;;;;;6.53;2.13;;;;;;;;;;5010926;28;20301;-71
2023/10/26 05:38:23;;;;;;;10.33;2.27;;;;;;;;;;5020845;28;20099;-70
2023/10/26 05:40:51;;;;;;;5.60;1.95;;;;;;;;;;5022643;28;20342;-72
2023/10/26 05:43:17;;;;;;;8.02;2.22;;;;;;;;;;5020039;28;20041;-72
2023/10/26 05:45:42;;;;;;;7.13;1.88;;;;;;;;;;5036685;28;20076;-72
2023/10/26 05:48:09;;;;;;;8.47;2.30;;;;;;;;;;5036105;28;20096;-71
2023/10/26 05:50:34;;;;;;;7.32;1.80;;;;;;;;;;5023218;28;20301;-72
2023/10/26 05:53:00;;;;;;;5.65;1.92;;;;;;;;;;5015768;28;20041;-71
2023/10/26 05:55:25;;;;;;;7.73;2.20;;;;;;;;;;4980164;28;20544;-72
2023/10/26 05:57:50;;;;;;;8.10;2.20;;;;;;;;;;5015549;28;20288;-73
2023/10/26 06:00:15;;;;;;;9.07;2.40;;;;;;;;;;4998184;28;20045;-71
2023/10/26 06:02:41;;;;;;;5.78;1.92;;;;;;;;;;5018232;28;20438;-71
2023/10/26 06:05:06;;;;;;;7.13;1.97;;;;;;;;;;4999526;28;20128;-73
2023/10/26 06:07:32;;;;;;;7.20;2.30;;;;;;;;;;5018508;28;20068;-73
2023/10/26 06:09:57;;;;;;;11.13;2.33;;;;;;;;;;4995536;28;20041;-73
2023/10/26 06:12:22;;;;;;;10.13;2.50;;;;;;;;;;5012748;28;20036;-73
2023/10/26 06:14:47;;;;;;;5.97;2.10;;;;;;;;;;4995052;28;20034;-70
2023/10/26 06:17:13;;;;;;;8.87;2.57;;;;;;;;;;5003840;28;20038;-70
2023/10/26 06:19:38;;;;;;;6.47;1.90;;;;;;;;;;5001174;28;20783;-71
2023/10/26 06:22:04;;;;;;;6.93;2.30;;;;;;;;;;5014124;28;20304;-71
2023/10/26 06:24:29;;;;;;;4.97;2.03;;;;;;;;;;5016449;28;20564;-71
2023/10/26 06:26:54;;;;;;;7.18;2.25;;;;;;;;;;5003675;28;20052;-71
2023/10/26 06:29:19;;;;;;;5.67;1.93;;;;;;;;;;5006034;28;20065;-78
2023/10/26 06:31:45;;;;;;;11.02;2.40;;;;;;;;;;4984328;28;20311;-74
2023/10/26 06:34:10;;;;;;;8.30;2.70;;;;;;;;;;4997919;28;20445;-74
2023/10/26 06:36:37;;;;;;;14.10;2.60;;;;;;;;;;5004337;28;20465;-72
2023/10/26 06:39:02;;;;;;;18.98;3.60;;;;;;;;;;5001251;28;20075;-69
2023/10/26 06:41:28;;;;;;;9.77;3.00;;;;;;;;;;4999006;28;20060;-72
2023/10/26 06:43:53;;;;;;;11.52;2.90;;;;;;;;;;4999500;28;20320;-70
2023/10/26 06:46:19;;;;;;;7.78;2.67;;;;;;;;;;5004065;28;20071;-70
2023/10/26 06:48:44;;;;;;;5.97;2.50;;;;;;;;;;5000526;28;20022;-71
2023/10/26 06:51:09;;;;;;;10.83;3.63;;;;;;;;;;5016429;28;20041;-71
2023/10/26 06:53:35;;;;;;;9.73;3.00;;;;;;;;;;5015837;28;20386;-71
2023/10/26 06:56:00;;;;;;;8.88;2.60;;;;;;;;;;5003585;28;20318;-71
2023/10/26 06:58:25;;;;;;;10.80;2.83;;;;;;;;;;5002753;28;20079;-71
2023/10/26 07:00:50;;;;;;;8.27;2.78;;;;;;;;;;5004067;28;20689;-72
2023/10/26 07:03:16;;;;;;;9.63;3.37;;;;;;;;;;5013572;28;20018;-71
2023/10/26 07:05:41;;;;;;;11.00;3.13;;;;;;;;;;5017224;28;20160;-71
2023/10/26 07:08:06;;;;;;;11.18;2.92;;;;;;;;;;5008413;28;20287;-71
2023/10/26 07:10:31;;;;;;;7.45;2.90;;;;;;;;;;5014347;28;20857;-71
2023/10/26 07:12:57;;;;;;;9.98;3.25;;;;;;;;;;5009165;28;20026;-71
2023/10/26 07:15:22;;;;;;;12.57;3.20;;;;;;;;;;4997989;28;20048;-73
2023/10/26 07:17:47;;;;;;;14.13;3.78;;;;;;;;;;4998656;28;20791;-70
2023/10/26 07:20:13;;;;;;;13.80;3.50;;;;;;;;;;4994794;28;20049;-70
2023/10/26 07:22:38;;;;;;;9.88;3.03;;;;;;;;;;5014165;28;20058;-73
2023/10/26 07:25:05;;;;;;;11.13;4.03;;;;;;;;;;4984501;28;20028;-72
2023/10/26 07:27:30;;;;;;;9.18;3.28;;;;;;;;;;5001516;28;20411;-72
2023/10/26 07:29:56;;;;;;;12.77;3.87;;;;;;;;;;4996196;28;20030;-73
2023/10/26 07:32:21;;;;;;;8.48;2.80;;;;;;;;;;5002499;28;20767;-73
2023/10/26 07:34:46;;;;;;;9.88;3.65;;;;;;;;;;4995067;28;20486;-71
2023/10/26 07:37:11;;;;;;;9.33;2.97;;;;;;;;;;4996747;28;20029;-72
2023/10/26 07:39:37;;;;;;;9.60;3.30;;;;;;;;;;4996373;28;20014;-72
2023/10/26 07:42:05;;;;;;;10.50;3.20;;;;;;;;;;5015305;28;20022;-72
2023/10/26 07:44:33;;;;;;;11.82;3.50;;;;;;;;;;5000480;28;20294;-72
2023/10/26 07:46:59;;;;;;;8.25;3.00;;;;;;;;;;5013091;28;20034;-70
2023/10/26 07:49:24;;;;;;;11.20;3.25;;;;;;;;;;4994940;28;20021;-70
2023/10/26 07:51:49;;;;;;;13.77;4.40;;;;;;;;;;4996716;28;20018;-70
2023/10/26 07:54:15;;;;;;;11.05;4.28;;;;;;;;;;5008914;28;20032;-71
2023/10/26 07:56:40;;;;;;;14.23;5.00;;;;;;;;;;5026361;28;20155;-71
2023/10/26 07:59:05;;;;;;;14.17;4.80;;;;;;;;;;5008023;28;20063;-71
2023/10/26 08:01:31;;;;;;;12.70;3.83;;;;;;;;;;5025782;28;20041;-71
2023/10/26 08:03:56;;;;;;;14.95;4.22;;;;;;;;;;4995271;28;20855;-71
2023/10/26 08:06:21;;;;;;;9.05;4.05;;;;;;;;;;5025052;28;20045;-71
2023/10/26 08:08:47;;;;;;;13.13;4.13;;;;;;;;;;5007423;28;20052;-72
2023/10/26 08:11:13;;;;;;;12.80;4.30;;;;;;;;;;5008500;28;20188;-72
2023/10/26 08:13:38;;;;;;;13.02;4.18;;;;;;;;;;5025020;28;20068;-72
2023/10/26 08:16:04;;;;;;;8.80;3.50;;;;;;;;;;5009412;28;20041;-71
2023/10/26 08:18:29;;;;;;;11.57;3.75;;;;;;;;;;4990537;28;20056;-70
2023/10/26 08:20:54;;;;;;;10.85;3.95;;;;;;;;;;4991794;28;20044;-71
2023/10/26 08:23:19;;;;;;;10.35;4.25;;;;;;;;;;5025567;28;20071;-69
2023/10/26 08:25:45;;;;;;;10.03;3.37;;;;;;;;;;5017801;28;20710;-70
2023/10/26 08:28:10;;;;;;;8.85;3.33;;;;;;;;;;5020592;28;20326;-70
2023/10/26 08:30:37;;;;;;;13.60;3.40;;;;;;;;;;4988442;28;20026;-69
2023/10/26 08:33:04;;;;;;;13.25;3.33;;;;;;;;;;5005259;28;20806;-72
2023/10/26 08:35:29;;;;;;;9.57;3.30;;;;;;;;;;5006194;28;20037;-70
2023/10/26 08:37:55;;;;;;;10.82;3.15;;;;;;;;;;5021330;28;20037;-70
2023/10/26 08:40:20;;;;;;;12.57;3.77;;;;;;;;;;4993124;28;20041;-71
2023/10/26 08:42:45;;;;;;;10.00;3.38;;;;;;;;;;5012131;28;20038;-70
2023/10/26 08:45:11;;;;;;;13.48;3.22;;;;;;;;;;5012982;28;20503;-71
2023/10/26 08:47:37;;;;;;;10.40;3.35;;;;;;;;;;5005317;28;20105;-71
2023/10/26 08:50:02;;;;;;;11.15;3.15;;;;;;;;;;4987860;28;20192;-71
2023/10/26 08:52:27;;;;;;;9.43;2.72;;;;;;;;;;5000318;28;20048;-71
2023/10/26 08:54:53;;;;;;;8.80;2.90;;;;;;;;;;5002348;28;20037;-71
2023/10/26 08:57:18;;;;;;;10.03;3.50;;;;;;;;;;4995005;28;20067;-71
2023/10/26 08:59:43;;;;;;;7.60;3.40;;;;;;;;;;5018978;28;20037;-70
2023/10/26 09:02:08;;;;;;;7.90;2.77;;;;;;;;;;5021171;28;20045;-71
2023/10/26 09:04:34;;;;;;;7.63;3.03;;;;;;;;;;5011582;28;20037;-71
2023/10/26 09:06:59;;;;;;;10.27;3.00;;;;;;;;;;5012119;28;20041;-71
2023/10/26 09:09:24;;;;;;;9.70;3.25;;;;;;;;;;5012972;28;20030;-70
2023/10/26 09:11:49;;;;;;;9.23;3.13;;;;;;;;;;5011659;28;20034;-71
2023/10/26 09:14:15;;;;;;;9.15;2.97;;;;;;;;;;5009558;28;20331;-72
2023/10/26 09:16:46;;;;;;;8.95;2.80;;;;;;;;;;5013178;28;20046;-72
2023/10/26 09:19:12;;;;;;;9.73;3.08;;;;;;;;;;5010917;28;20037;-72
2023/10/26 09:21:50;;;;;;;12.43;3.00;;;;;;;;;;4999330;28;20458;-74
2023/10/26 09:24:19;;;;;;;18.40;5.65;;;;;;;;;;4999715;28;20030;-71
2023/10/26 09:26:44;;;;;;;14.37;4.20;;;;;;;;;;4994298;28;20038;-71
2023/10/26 09:29:09;;;;;;;13.53;4.00;;;;;;;;;;4994535;28;20025;-71
2023/10/26 09:31:35;;;;;;;16.20;3.77;;;;;;;;;;5000398;28;20034;-71
2023/10/26 09:34:09;;;;;;;16.97;3.40;;;;;;;;;;5012187;28;20045;-71
2023/10/26 09:36:34;;;;;;;12.98;3.88;;;;;;;;;;5011717;28;20034;-71
2023/10/26 09:38:59;;;;;;;13.00;3.65;;;;;;;;;;5012319;28;20103;-73
2023/10/26 09:41:25;;;;;;;12.43;2.90;;;;;;;;;;5012977;28;20802;-70
2023/10/26 09:43:50;;;;;;;12.35;4.22;;;;;;;;;;4992632;28;20380;-70
2023/10/26 09:46:17;;;;;;;9.47;3.33;;;;;;;;;;5010813;28;20495;-71
2023/10/26 09:48:42;;;;;;;11.77;3.22;;;;;;;;;;5010867;28;20288;-70
2023/10/26 09:51:10;;;;;;;10.10;2.53;;;;;;;;;;4992567;28;20026;-71
2023/10/26 09:53:38;;;;;;;7.82;3.00;;;;;;;;;;4999343;28;20835;-72
2023/10/26 09:56:04;;;;;;;8.43;3.10;;;;;;;;;;5012891;28;20512;-71
2023/10/26 09:58:39;;;;;;;7.18;2.67;;;;;;;;;;5014295;28;20029;-70
2023/10/26 10:01:23;;;;;;;11.27;3.03;;;;;;;;;;4998072;28;20602;-73
2023/10/26 10:03:49;;;;;;;10.38;2.70;;;;;;;;;;5015872;28;20048;-75
2023/10/26 10:06:42;;;;;;;8.70;2.40;;;;;;;;;;4998713;28;20183;-76
2023/10/26 10:09:07;;;;;;;10.20;2.10;;;;;;;;;;4981269;28;20774;-74
2023/10/26 10:11:32;;;;;;;5.47;1.90;;;;;;;;;;4996907;28;20042;-73
2023/10/26 10:13:58;;;;;;;9.03;2.23;;;;;;;;;;5015606;28;20080;-76
2023/10/26 10:16:35;;;;;;;8.68;2.22;;;;;;;;;;5016240;28;20319;-76
2023/10/26 10:19:19;;;;;;;8.45;2.45;;;;;;;;;;5014306;28;20065;-77
2023/10/26 10:21:46;;;;;;;5.78;1.65;;;;;;;;;;5003966;28;20045;-73
2023/10/26 10:24:16;;;;;;;7.28;1.80;;;;;;;;;;4996724;28;20045;-74
2023/10/26 10:27:00;;;;;;;8.23;1.95;;;;;;;;;;4997437;28;20750;-72
2023/10/26 10:29:25;;;;;;;8.27;1.90;;;;;;;;;;5015165;28;20097;-71
2023/10/26 10:31:51;;;;;;;6.10;1.53;;;;;;;;;;4995180;28;20048;-71
2023/10/26 10:34:16;;;;;;;7.20;1.57;;;;;;;;;;5010124;28;20038;-71
2023/10/26 10:37:01;;;;;;;9.50;1.48;;;;;;;;;;4997617;28;20041;-72
2023/10/26 10:39:26;;;;;;;5.88;1.63;;;;;;;;;;5015221;28;20527;-74
2023/10/26 10:41:51;;;;;;;5.03;1.30;;;;;;;;;;5010944;28;20057;-73
2023/10/26 10:44:16;;;;;;;7.38;1.45;;;;;;;;;;4995994;28;20830;-72
2023/10/26 10:46:46;;;;;;;4.60;1.45;;;;;;;;;;4992876;28;20057;-71
2023/10/26 10:49:11;;;;;;;5.88;1.30;;;;;;;;;;5014271;28;20042;-70
2023/10/26 10:51:37;;;;;;;4.90;1.40;;;;;;;;;;5003729;28;20034;-73
2023/10/26 10:54:04;;;;;;;7.82;1.55;;;;;;;;;;5004033;28;20104;-72
2023/10/26 10:56:34;;;;;;;7.55;1.63;;;;;;;;;;5019657;28;20034;-72
2023/10/26 10:58:59;;;;;;;5.00;1.55;;;;;;;;;;5006723;28;20043;-72
2023/10/26 11:01:27;;;;;;;4.43;1.30;;;;;;;;;;5016873;28;20037;-72
2023/10/26 11:04:01;;;;;;;9.07;1.88;;;;;;;;;;5016934;28;20346;-73
2023/10/26 11:06:26;;;;;;;6.20;1.73;;;;;;;;;;5021535;28;20116;-72
2023/10/26 11:08:52;;;;;;;5.83;1.50;;;;;;;;;;5016136;28;20577;-71
2023/10/26 11:11:26;;;;;;;4.13;1.50;;;;;;;;;;5017302;28;20571;-72
2023/10/26 11:14:12;;;;;;;5.65;1.38;;;;;;;;;;5017940;28;20079;-72
2023/10/26 11:16:38;;;;;;;4.80;1.40;;;;;;;;;;5016119;28;20057;-71
2023/10/26 11:19:03;;;;;;;8.50;1.83;;;;;;;;;;4997321;28;20038;-72
2023/10/26 11:21:28;;;;;;;5.13;1.70;;;;;;;;;;5018753;28;20050;-70
2023/10/26 11:23:54;;;;;;;3.97;1.60;;;;;;;;;;4999067;28;20026;-71
2023/10/26 11:26:19;;;;;;;10.43;1.80;;;;;;;;;;5030443;28;20163;-71
2023/10/26 11:28:44;;;;;;;5.07;1.93;;;;;;;;;;5010878;28;20292;-72
2023/10/26 11:31:09;;;;;;;7.40;1.53;;;;;;;;;;5032882;28;20288;-70
2023/10/26 11:33:37;;;;;;;4.90;1.73;;;;;;;;;;5028290;28;20041;-71
2023/10/26 11:36:06;;;;;;;5.80;1.75;;;;;;;;;;5019198;28;20840;-71
2023/10/26 11:38:32;;;;;;;8.50;1.83;;;;;;;;;;5018567;28;20105;-72
2023/10/26 11:40:57;;;;;;;5.60;1.60;;;;;;;;;;5040157;28;20041;-72
2023/10/26 11:43:31;;;;;;;4.73;1.50;;;;;;;;;;5023076;28;20120;-71
2023/10/26 11:45:59;;;;;;;6.50;1.80;;;;;;;;;;5019030;28;20124;-71
2023/10/26 11:48:24;;;;;;;5.35;1.73;;;;;;;;;;4999623;28;20123;-72
2023/10/26 11:50:50;;;;;;;4.78;1.67;;;;;;;;;;5017938;28;20460;-72
2023/10/26 11:53:15;;;;;;;4.83;1.53;;;;;;;;;;5018897;28;20800;-72
2023/10/26 11:55:40;;;;;;;5.13;1.57;;;;;;;;;;5016838;28;20752;-72
2023/10/26 11:58:05;;;;;;;7.27;1.70;;;;;;;;;;4999665;28;20503;-71
2023/10/26 12:00:30;;;;;;;5.63;1.93;;;;;;;;;;5004906;28;20393;-71
2023/10/26 12:02:56;;;;;;;6.70;1.70;;;;;;;;;;5026620;28;20053;-72
2023/10/26 12:05:22;;;;;;;6.80;1.77;;;;;;;;;;4991728;28;20288;-71
2023/10/26 12:07:48;;;;;;;6.82;1.77;;;;;;;;;;5025753;28;20032;-71
2023/10/26 12:10:14;;;;;;;4.15;1.50;;;;;;;;;;4992498;28;20010;-72
2023/10/26 12:12:40;;;;;;;3.97;1.55;;;;;;;;;;4992725;28;20033;-71
2023/10/26 12:15:05;;;;;;;5.32;1.42;;;;;;;;;;4993907;28;20056;-72
2023/10/26 12:17:31;;;;;;;5.72;1.70;;;;;;;;;;4990153;28;20476;-71
2023/10/26 12:19:56;;;;;;;4.80;1.50;;;;;;;;;;5006275;28;20033;-71
2023/10/26 12:22:21;;;;;;;5.87;1.80;;;;;;;;;;5006274;28;20033;-72
2023/10/26 12:24:47;;;;;;;6.33;1.70;;;;;;;;;;4988516;28;20109;-71
2023/10/26 12:27:16;;;;;;;5.57;1.63;;;;;;;;;;5001715;28;20694;-72
2023/10/26 12:29:41;;;;;;;7.37;2.17;;;;;;;;;;5026340;28;20025;-72
2023/10/26 12:32:06;;;;;;;5.40;1.90;;;;;;;;;;4992255;28;20038;-71
2023/10/26 12:34:33;;;;;;;6.37;1.70;;;;;;;;;;5026031;28;20151;-68
2023/10/26 12:36:58;;;;;;;8.15;1.70;;;;;;;;;;5014848;28;20040;-69
2023/10/26 12:39:23;;;;;;;8.77;1.80;;;;;;;;;;5006837;28;20026;-69
2023/10/26 12:41:48;;;;;;;9.87;2.30;;;;;;;;;;5018561;28;20038;-75
2023/10/26 12:44:15;;;;;;;5.83;1.83;;;;;;;;;;4999212;28;20271;-68
2023/10/26 12:46:41;;;;;;;6.35;1.70;;;;;;;;;;5008892;28;20327;-69
2023/10/26 12:49:06;;;;;;;7.30;1.97;;;;;;;;;;4992596;28;20616;-74
2023/10/26 12:51:31;;;;;;;6.38;1.95;;;;;;;;;;5006551;28;20295;-69
2023/10/26 12:53:57;;;;;;;6.40;1.77;;;;;;;;;;5014709;28;20048;-68
2023/10/26 12:56:22;;;;;;;7.53;1.80;;;;;;;;;;5021218;28;20280;-70
2023/10/26 12:58:47;;;;;;;8.03;1.30;;;;;;;;;;5006397;28;20385;-70
2023/10/26 13:01:12;;;;;;;5.80;1.37;;;;;;;;;;5002482;28;20303;-69
2023/10/26 13:03:38;;;;;;;5.93;1.47;;;;;;;;;;5012223;28;20049;-70
2023/10/26 13:06:03;;;;;;;10.63;1.75;;;;;;;;;;5006248;28;20083;-70
2023/10/26 13:08:28;;;;;;;7.07;1.60;;;;;;;;;;4992434;28;21588;-70
2023/10/26 13:10:53;;;;;;;4.78;1.30;;;;;;;;;;5005755;28;20325;-70
2023/10/26 13:13:19;;;;;;;7.03;1.80;;;;;;;;;;5023714;28;20101;-70
2023/10/26 13:15:44;;;;;;;5.23;1.30;;;;;;;;;;5018857;28;20057;-70
2023/10/26 13:18:09;;;;;;;11.47;1.70;;;;;;;;;;5001864;28;20049;-70
2023/10/26 13:20:34;;;;;;;9.20;1.50;;;;;;;;;;5006302;28;20037;-70
2023/10/26 13:23:00;;;;;;;8.63;1.70;;;;;;;;;;5023991;28;20026;-69
2023/10/26 13:25:25;;;;;;;6.15;1.67;;;;;;;;;;5002565;28;20040;-69
2023/10/26 13:27:51;;;;;;;6.65;1.48;;;;;;;;;;5020347;28;20403;-69
2023/10/26 13:30:16;;;;;;;5.18;1.17;;;;;;;;;;5021427;28;20041;-70
2023/10/26 13:32:42;;;;;;;6.30;1.50;;;;;;;;;;5026414;28;20057;-70
2023/10/26 13:35:07;;;;;;;5.97;1.30;;;;;;;;;;5026354;28;20042;-72
2023/10/26 13:37:33;;;;;;;8.52;1.70;;;;;;;;;;5022832;28;20670;-70
2023/10/26 13:39:58;;;;;;;7.17;1.27;;;;;;;;;;5024344;28;20435;-70
2023/10/26 13:42:23;;;;;;;8.60;1.77;;;;;;;;;;5009945;28;20399;-70
2023/10/26 13:44:48;;;;;;;6.73;1.60;;;;;;;;;;5025500;28;20036;-70
2023/10/26 13:47:13;;;;;;;6.57;1.30;;;;;;;;;;5023955;28;20116;-70
2023/10/26 13:49:39;;;;;;;5.45;1.33;;;;;;;;;;5024580;28;20284;-70
2023/10/26 13:52:04;;;;;;;6.77;1.47;;;;;;;;;;5009325;28;20512;-70
2023/10/26 13:54:30;;;;;;;5.18;1.00;;;;;;;;;;5027175;28;20287;-70
2023/10/26 13:56:55;;;;;;;7.63;1.30;;;;;;;;;;5022509;28;20418;-69
2023/10/26 13:59:20;;;;;;;3.63;1.20;;;;;;;;;;5024543;28;20276;-70
2023/10/26 14:01:45;;;;;;;6.47;1.30;;;;;;;;;;5021654;28;20049;-70
2023/10/26 14:04:11;;;;;;;6.37;1.60;;;;;;;;;;5025000;28;20034;-69
2023/10/26 14:06:36;;;;;;;5.32;1.10;;;;;;;;;;4977368;28;20037;-67
2023/10/26 14:09:01;;;;;;;8.10;1.67;;;;;;;;;;5016556;28;20503;-70
2023/10/26 14:11:27;;;;;;;6.97;1.00;;;;;;;;;;5028017;28;20598;-70
2023/10/26 14:13:52;;;;;;;5.97;1.10;;;;;;;;;;5010616;28;20105;-71
2023/10/26 14:16:20;;;;;;;4.35;0.98;;;;;;;;;;5027230;28;20072;-70
2023/10/26 14:18:45;;;;;;;8.23;1.33;;;;;;;;;;5022881;28;20045;-70
2023/10/26 14:21:10;;;;;;;5.82;1.20;;;;;;;;;;5010062;28;20052;-68
2023/10/26 14:23:36;;;;;;;4.90;1.10;;;;;;;;;;4990346;28;20116;-72
2023/10/26 14:26:01;;;;;;;3.40;1.00;;;;;;;;;;5000349;28;20129;-71
2023/10/26 14:28:26;;;;;;;7.90;1.30;;;;;;;;;;5001408;28;20319;-69